createdAt,value
2019-03-03T00:00:18.195Z,8.80
2019-03-03T00:02:46.478Z,8.80
2019-03-03T00:05:14.801Z,8.80
2019-03-03T00:07:43.043Z,8.80
2019-03-03T00:10:11.857Z,8.80
2019-03-03T00:12:40.079Z,8.70
2019-03-03T00:15:10.562Z,8.70
2019-03-03T00:17:38.826Z,8.80
2019-03-03T00:20:12.231Z,8.80
2019-03-03T00:22:40.573Z,8.70
2019-03-03T00:25:10.492Z,8.70
2019-03-03T00:27:38.750Z,8.60
2019-03-03T00:30:13.296Z,8.60
2019-03-03T00:32:41.558Z,8.50
2019-03-03T00:35:09.840Z,8.60
2019-03-03T00:37:56.451Z,8.60
2019-03-03T00:40:38.471Z,8.60
2019-03-03T00:43:17.396Z,8.50
2019-03-03T00:46:02.420Z,8.50
2019-03-03T00:48:34.942Z,8.50
2019-03-03T00:51:22.931Z,8.50
2019-03-03T00:54:07.849Z,8.50
2019-03-03T00:56:40.448Z,8.50
2019-03-03T00:59:12.991Z,8.60
2019-03-03T01:01:48.883Z,8.60
2019-03-03T01:04:21.792Z,8.50
2019-03-03T01:07:03.879Z,8.60
2019-03-03T01:09:42.817Z,8.60
2019-03-03T01:12:15.491Z,8.60
2019-03-03T01:14:51.326Z,8.60
2019-03-03T01:17:21.228Z,8.60
2019-03-03T01:19:51.122Z,8.60
2019-03-03T01:22:22.393Z,8.60
2019-03-03T01:24:55.129Z,8.60
2019-03-03T01:27:25.697Z,8.60
2019-03-03T01:29:53.423Z,8.60
2019-03-03T01:32:23.292Z,8.60
2019-03-03T01:34:51.567Z,8.60
2019-03-03T01:37:21.436Z,8.60
2019-03-03T01:39:49.699Z,8.60
2019-03-03T01:42:21.003Z,8.60
2019-03-03T01:44:49.315Z,8.60
2019-03-03T01:47:17.583Z,8.60
2019-03-03T01:49:45.871Z,8.60
2019-03-03T01:52:14.120Z,8.70
2019-03-03T01:54:44.019Z,8.70
2019-03-03T01:57:16.925Z,8.70
2019-03-03T01:59:45.178Z,8.70
2019-03-03T02:02:13.395Z,8.80
2019-03-03T02:04:41.678Z,8.70
2019-03-03T02:07:11.676Z,8.70
2019-03-03T02:16:16.153Z,8.70
2019-03-03T02:18:54.877Z,8.70
2019-03-03T02:21:20.732Z,8.70
2019-03-03T02:24:09.221Z,8.70
2019-03-03T02:26:33.109Z,8.60
2019-03-03T02:29:01.460Z,8.70
2019-03-03T02:31:29.797Z,8.70
2019-03-03T02:33:58.052Z,8.70
2019-03-03T02:36:26.429Z,8.70
2019-03-03T02:38:54.725Z,8.80
2019-03-03T02:41:23.002Z,8.80
2019-03-03T02:43:51.321Z,8.80
2019-03-03T02:46:19.553Z,8.80
2019-03-03T02:48:47.848Z,8.80
2019-03-03T02:51:16.154Z,8.80
2019-03-03T02:53:44.429Z,8.80
2019-03-03T02:56:12.690Z,8.80
2019-03-03T02:58:40.969Z,8.90
2019-03-03T03:01:10.840Z,8.90
2019-03-03T03:03:39.170Z,8.90
2019-03-03T03:06:11.795Z,8.90
2019-03-03T03:08:44.568Z,8.90
2019-03-03T03:11:14.451Z,8.80
2019-03-03T03:13:53.407Z,8.80
2019-03-03T03:16:23.285Z,8.80
2019-03-03T03:19:02.099Z,8.90
2019-03-03T03:21:40.733Z,8.90
2019-03-03T03:24:10.723Z,8.90
2019-03-03T03:26:46.542Z,8.90
2019-03-03T03:29:16.431Z,8.90
2019-03-03T03:31:55.620Z,9.00
2019-03-03T03:34:28.709Z,9.00
2019-03-03T03:37:04.700Z,8.90
2019-03-03T03:39:50.987Z,8.90
2019-03-03T03:42:20.880Z,8.90
2019-03-03T03:44:56.641Z,8.90
2019-03-03T03:47:32.517Z,8.90
2019-03-03T03:50:05.354Z,8.80
2019-03-03T03:52:41.307Z,8.80
2019-03-03T03:55:16.788Z,8.70
2019-03-03T03:57:49.194Z,8.80
2019-03-03T04:00:21.932Z,8.80
2019-03-03T04:02:57.837Z,8.90
2019-03-03T04:05:27.722Z,8.90
2019-03-03T04:08:12.975Z,8.90
2019-03-03T04:10:58.266Z,8.90
2019-03-03T04:13:33.949Z,8.90
2019-03-03T04:16:20.086Z,8.80
2019-03-03T04:18:50.035Z,8.80
2019-03-03T04:21:38.148Z,8.80
2019-03-03T04:24:08.016Z,8.80
2019-03-03T04:26:42.376Z,8.80
2019-03-03T04:29:18.341Z,8.80
2019-03-03T04:32:03.291Z,8.70
2019-03-03T04:34:37.274Z,8.80
2019-03-03T04:37:19.230Z,8.80
2019-03-03T04:39:53.508Z,8.80
2019-03-03T04:42:27.952Z,8.80
2019-03-03T04:44:57.941Z,8.70
2019-03-03T04:47:27.857Z,8.70
2019-03-03T04:49:57.753Z,8.70
2019-03-03T04:52:37.963Z,8.70
2019-03-03T04:55:11.774Z,8.70
2019-03-03T04:57:47.447Z,8.70
2019-03-03T05:00:26.119Z,8.70
2019-03-03T05:03:08.037Z,8.80
2019-03-03T05:05:40.966Z,8.80
2019-03-03T05:08:10.862Z,8.90
2019-03-03T05:10:46.806Z,8.80
2019-03-03T05:13:22.672Z,8.80
2019-03-03T05:15:55.514Z,8.80
2019-03-03T05:18:25.409Z,8.80
2019-03-03T05:20:53.650Z,8.80
2019-03-03T05:23:21.882Z,8.80
2019-03-03T05:25:50.130Z,8.80
2019-03-03T05:28:18.376Z,8.80
2019-03-03T05:30:46.625Z,8.90
2019-03-03T05:33:14.871Z,8.80
2019-03-03T05:35:43.122Z,8.80
2019-03-03T05:38:11.365Z,8.70
2019-03-03T05:40:39.616Z,8.80
2019-03-03T05:43:07.852Z,8.80
2019-03-03T05:45:36.117Z,8.80
2019-03-03T05:48:04.400Z,8.70
2019-03-03T05:50:32.634Z,8.70
2019-03-03T05:53:00.875Z,8.70
2019-03-03T05:55:29.142Z,8.60
2019-03-03T05:57:57.395Z,8.70
2019-03-03T06:00:25.643Z,8.70
2019-03-03T06:02:53.892Z,8.70
2019-03-03T06:05:22.206Z,8.80
2019-03-03T06:07:50.452Z,8.80
2019-03-03T06:10:18.743Z,8.70
2019-03-03T06:12:46.990Z,8.70
2019-03-03T06:15:15.252Z,8.80
2019-03-03T06:17:43.489Z,8.80
2019-03-03T06:20:12.289Z,8.90
2019-03-03T06:22:40.561Z,8.80
2019-03-03T06:25:10.161Z,8.70
2019-03-03T06:27:38.485Z,8.70
2019-03-03T06:30:10.163Z,8.70
2019-03-03T06:32:38.392Z,8.70
2019-03-03T06:35:08.387Z,8.70
2019-03-03T06:37:36.661Z,8.70
2019-03-03T06:40:07.260Z,8.70
2019-03-03T06:42:35.511Z,8.70
2019-03-03T06:45:04.891Z,8.70
2019-03-03T06:47:33.173Z,8.70
2019-03-03T06:50:01.506Z,8.70
2019-03-03T06:52:29.738Z,8.70
2019-03-03T06:54:58.016Z,8.60
2019-03-03T06:57:26.263Z,8.60
2019-03-03T06:59:54.509Z,8.60
2019-03-03T07:02:22.746Z,8.60
2019-03-03T07:04:51.000Z,8.70
2019-03-03T07:07:19.265Z,8.70
2019-03-03T07:09:47.541Z,8.60
2019-03-03T07:12:15.783Z,8.70
2019-03-03T07:14:44.021Z,8.70
2019-03-03T07:17:12.268Z,8.80
2019-03-03T07:19:40.581Z,8.80
2019-03-03T07:22:08.857Z,8.80
2019-03-03T07:24:37.117Z,8.80
2019-03-03T07:27:05.360Z,8.80
2019-03-03T07:29:33.620Z,8.80
2019-03-03T07:32:01.866Z,8.80
2019-03-03T07:34:30.127Z,8.80
2019-03-03T07:36:58.414Z,8.80
2019-03-03T07:39:26.664Z,8.80
2019-03-03T07:41:55.046Z,8.90
2019-03-03T07:44:23.281Z,8.90
2019-03-03T07:46:51.525Z,9.00
2019-03-03T07:49:19.778Z,9.10
2019-03-03T07:51:48.016Z,9.00
2019-03-03T07:54:16.340Z,9.00
2019-03-03T07:56:44.596Z,9.00
2019-03-03T07:59:12.875Z,9.10
2019-03-03T08:01:41.121Z,9.20
2019-03-03T08:04:09.416Z,9.40
2019-03-03T08:06:37.724Z,9.30
2019-03-03T08:09:06.045Z,9.40
2019-03-03T08:11:34.302Z,9.40
2019-03-03T08:14:02.537Z,9.50
2019-03-03T08:16:30.873Z,9.50
2019-03-03T08:18:59.147Z,9.60
2019-03-03T08:21:27.422Z,9.70
2019-03-03T08:23:55.648Z,9.70
2019-03-03T08:26:24.020Z,9.70
2019-03-03T08:28:52.265Z,9.80
2019-03-03T08:31:20.495Z,9.90
2019-03-03T08:33:48.747Z,9.90
2019-03-03T08:36:16.993Z,9.90
2019-03-03T08:38:45.269Z,10.00
2019-03-03T08:41:13.544Z,10.20
2019-03-03T08:43:43.444Z,10.10
2019-03-03T08:46:16.099Z,10.30
2019-03-03T08:48:45.997Z,10.30
2019-03-03T08:51:24.334Z,10.30
2019-03-03T08:54:06.457Z,10.30
2019-03-03T08:56:37.978Z,10.30
2019-03-03T08:59:07.899Z,10.40
2019-03-03T09:01:53.883Z,10.30
2019-03-03T09:04:32.800Z,10.40
2019-03-03T09:07:08.539Z,10.30
2019-03-03T09:09:54.864Z,10.40
2019-03-03T09:12:24.761Z,10.40
2019-03-03T09:14:54.684Z,10.40
2019-03-03T09:17:30.714Z,10.40
2019-03-03T09:20:17.235Z,10.50
2019-03-03T09:22:53.133Z,10.60
2019-03-03T09:25:31.910Z,10.60
2019-03-03T09:28:04.544Z,10.70
2019-03-03T09:30:43.286Z,10.80
2019-03-03T09:33:13.208Z,10.90
2019-03-03T09:35:45.950Z,11.00
2019-03-03T09:38:25.082Z,11.10
2019-03-03T09:40:57.598Z,11.20
2019-03-03T09:43:30.331Z,11.30
2019-03-03T09:46:02.940Z,11.30
2019-03-03T09:48:32.835Z,11.50
2019-03-03T09:51:02.729Z,11.50
2019-03-03T09:53:32.638Z,11.60
2019-03-03T09:56:18.912Z,11.70
2019-03-03T09:58:58.075Z,11.70
2019-03-03T10:01:33.599Z,11.70
2019-03-03T10:04:09.282Z,11.90
2019-03-03T10:06:48.220Z,11.80
2019-03-03T10:09:21.119Z,11.90
2019-03-03T10:11:59.976Z,12.00
2019-03-03T10:14:32.930Z,12.10
2019-03-03T10:17:05.945Z,12.10
2019-03-03T10:19:35.845Z,12.20
2019-03-03T10:22:05.748Z,12.30
2019-03-03T10:24:51.966Z,12.40
2019-03-03T10:27:21.846Z,12.60
2019-03-03T10:29:57.605Z,12.60
2019-03-03T10:32:27.492Z,12.70
2019-03-03T10:35:06.390Z,12.80
2019-03-03T10:37:45.263Z,13.10
2019-03-03T10:40:15.181Z,13.10
2019-03-03T10:43:00.479Z,13.30
2019-03-03T10:45:33.418Z,13.50
2019-03-03T10:48:09.297Z,13.40
2019-03-03T10:50:48.215Z,13.50
2019-03-03T10:53:24.203Z,13.70
2019-03-03T10:55:56.829Z,13.70
2019-03-03T10:58:32.914Z,13.90
2019-03-03T11:01:02.810Z,14.10
2019-03-03T11:03:32.830Z,14.20
2019-03-03T11:06:02.712Z,14.20
2019-03-03T11:08:35.014Z,14.40
2019-03-03T11:11:07.930Z,14.50
2019-03-03T11:13:37.972Z,14.60
2019-03-03T11:16:26.159Z,14.70
2019-03-03T11:18:58.817Z,14.70
2019-03-03T11:21:34.699Z,14.90
2019-03-03T11:24:07.453Z,15.00
2019-03-03T11:26:37.383Z,15.20
2019-03-03T11:29:07.268Z,15.30
2019-03-03T11:31:43.214Z,15.40
2019-03-03T11:34:18.953Z,15.50
2019-03-03T11:36:51.804Z,15.60
2019-03-03T11:39:36.587Z,15.70
2019-03-03T11:42:12.060Z,15.60
2019-03-03T11:45:00.019Z,15.60
2019-03-03T11:47:32.705Z,15.50
2019-03-03T11:50:08.530Z,15.50
2019-03-03T12:00:42.810Z,15.50
2019-03-03T12:03:15.470Z,15.50
2019-03-03T12:05:54.150Z,15.50
2019-03-03T12:08:40.527Z,15.60
2019-03-03T12:11:27.209Z,15.70
2019-03-03T12:14:06.390Z,15.80
2019-03-03T12:16:36.290Z,15.90
2019-03-03T12:19:09.142Z,16.00
2019-03-03T12:21:45.053Z,16.20
2019-03-03T12:24:20.790Z,16.40
2019-03-03T12:27:06.968Z,16.50
2019-03-03T12:29:43.149Z,16.90
2019-03-03T12:32:13.047Z,17.20
2019-03-03T12:34:49.121Z,17.60
2019-03-03T12:37:30.801Z,17.80
2019-03-03T12:40:10.420Z,18.10
2019-03-03T12:42:49.119Z,18.30
2019-03-03T12:45:41.603Z,18.10
2019-03-03T12:48:40.495Z,18.00
2019-03-03T12:51:10.430Z,17.80
2019-03-03T12:53:44.574Z,17.80
2019-03-03T12:56:30.557Z,18.00
2019-03-03T12:59:06.569Z,18.20
2019-03-03T13:01:36.467Z,18.50
2019-03-03T13:04:06.418Z,18.80
2019-03-03T13:06:49.476Z,18.90
2019-03-03T13:09:19.348Z,19.40
2019-03-03T13:11:58.122Z,19.90
2019-03-03T13:14:33.953Z,20.10
2019-03-03T13:17:19.028Z,20.10
2019-03-03T13:19:54.882Z,19.90
2019-03-03T13:22:30.651Z,19.90
2019-03-03T13:25:06.643Z,19.70
2019-03-03T13:27:38.960Z,19.50
2019-03-03T13:30:19.595Z,19.10
2019-03-03T13:32:49.509Z,19.10
2019-03-03T13:35:26.533Z,19.20
2019-03-03T13:37:56.408Z,19.30
2019-03-03T13:40:41.415Z,19.60
2019-03-03T13:43:09.663Z,20.00
2019-03-03T13:45:37.939Z,20.60
2019-03-03T13:48:07.398Z,21.20
2019-03-03T13:50:35.723Z,21.30
2019-03-03T13:53:03.967Z,20.90
2019-03-03T13:55:32.218Z,20.00
2019-03-03T13:58:00.522Z,19.00
2019-03-03T14:00:28.746Z,18.60
2019-03-03T14:02:57.043Z,18.60
2019-03-03T14:05:25.508Z,19.30
2019-03-03T14:07:56.052Z,20.00
2019-03-03T14:10:23.814Z,20.90
2019-03-03T14:12:52.196Z,21.30
2019-03-03T14:15:20.717Z,21.60
2019-03-03T14:17:49.065Z,21.30
2019-03-03T14:20:22.192Z,21.00
2019-03-03T14:22:52.578Z,21.00
2019-03-03T14:25:20.852Z,20.60
2019-03-03T14:27:49.158Z,19.70
2019-03-03T14:30:20.407Z,19.30
2019-03-03T14:32:48.735Z,19.00
2019-03-03T14:35:17.281Z,19.00
2019-03-03T14:37:45.548Z,18.70
2019-03-03T14:40:21.894Z,18.50
2019-03-03T14:42:50.176Z,18.20
2019-03-03T14:45:19.137Z,17.50
2019-03-03T14:47:47.488Z,17.40
2019-03-03T14:50:19.980Z,17.20
2019-03-03T14:52:50.961Z,16.90
2019-03-03T14:55:20.058Z,16.80
2019-03-03T14:57:48.358Z,16.90
2019-03-03T15:00:26.787Z,16.90
2019-03-03T15:02:55.289Z,16.90
2019-03-03T15:05:23.562Z,16.80
2019-03-03T15:07:51.843Z,16.60
2019-03-03T15:10:20.079Z,16.50
2019-03-03T15:12:48.379Z,16.40
2019-03-03T15:15:19.613Z,16.40
2019-03-03T15:17:47.902Z,16.30
2019-03-03T15:20:16.633Z,16.10
2019-03-03T15:22:44.918Z,16.00
2019-03-03T15:25:14.303Z,15.90
2019-03-03T15:27:42.627Z,15.80
2019-03-03T15:30:16.580Z,15.70
2019-03-03T15:32:45.754Z,15.60
2019-03-03T15:35:14.035Z,15.60
2019-03-03T15:37:44.025Z,15.60
2019-03-03T15:40:15.083Z,15.70
2019-03-03T15:42:43.974Z,15.80
2019-03-03T15:45:16.744Z,15.80
2019-03-03T15:47:47.074Z,15.80
2019-03-03T15:50:16.345Z,15.80
2019-03-03T15:52:44.589Z,15.90
2019-03-03T15:55:15.662Z,16.00
2019-03-03T15:57:43.937Z,16.00
2019-03-03T16:00:23.436Z,15.90
2019-03-03T16:02:52.636Z,15.90
2019-03-03T16:05:21.161Z,15.70
2019-03-03T16:07:49.501Z,15.70
2019-03-03T16:10:19.722Z,15.60
2019-03-03T16:12:48.008Z,15.60
2019-03-03T16:15:17.358Z,15.60
2019-03-03T16:17:45.638Z,15.40
2019-03-03T16:20:16.469Z,15.30
2019-03-03T16:22:44.719Z,15.30
2019-03-03T16:25:15.513Z,15.30
2019-03-03T16:27:43.773Z,15.20
2019-03-03T16:30:20.766Z,15.20
2019-03-03T16:32:49.075Z,15.20
2019-03-03T16:35:17.316Z,15.10
2019-03-03T16:37:45.587Z,15.00
2019-03-03T16:40:15.995Z,15.00
2019-03-03T16:42:44.478Z,14.90
2019-03-03T16:45:14.398Z,14.80
2019-03-03T16:47:42.715Z,14.80
2019-03-03T16:50:16.407Z,14.70
2019-03-03T16:52:44.799Z,14.70
2019-03-03T16:55:14.484Z,14.60
2019-03-03T16:57:42.745Z,14.60
2019-03-03T17:00:13.859Z,14.60
2019-03-03T17:02:42.096Z,14.50
2019-03-03T17:05:13.563Z,14.50
2019-03-03T17:07:41.896Z,14.50
2019-03-03T17:10:11.023Z,14.40
2019-03-03T17:12:39.800Z,14.40
2019-03-03T17:15:20.210Z,14.30
2019-03-03T17:17:48.459Z,14.30
2019-03-03T17:20:16.754Z,14.20
2019-03-03T17:22:44.999Z,14.20
2019-03-03T17:25:21.499Z,14.20
2019-03-03T17:27:49.799Z,14.20
2019-03-03T17:30:22.702Z,14.10
2019-03-03T17:32:51.014Z,14.10
2019-03-03T17:35:19.272Z,14.10
2019-03-03T17:37:47.592Z,14.00
2019-03-03T17:40:17.943Z,13.90
2019-03-03T17:42:46.176Z,13.90
2019-03-03T17:45:16.677Z,13.90
2019-03-03T17:47:44.974Z,13.90
2019-03-03T17:50:15.775Z,13.90
2019-03-03T17:52:44.912Z,13.90
2019-03-03T17:55:14.340Z,13.90
2019-03-03T17:57:42.630Z,13.90
2019-03-03T18:00:13.521Z,13.80
2019-03-03T18:02:41.819Z,13.80
2019-03-03T18:05:10.070Z,13.80
2019-03-03T18:07:38.534Z,13.80
2019-03-03T18:10:09.831Z,13.80
2019-03-03T18:12:38.343Z,13.70
2019-03-03T18:15:09.391Z,13.70
2019-03-03T18:17:37.835Z,13.60
2019-03-03T18:20:09.208Z,13.50
2019-03-03T18:22:37.475Z,13.50
2019-03-03T18:25:06.671Z,13.50
2019-03-03T18:27:34.940Z,13.50
2019-03-03T18:30:03.678Z,13.50
2019-03-03T18:32:31.960Z,13.50
2019-03-03T18:35:00.324Z,13.50
2019-03-03T18:37:28.560Z,13.50
2019-03-03T18:39:56.893Z,13.50
2019-03-03T18:42:25.252Z,13.50
2019-03-03T18:44:53.531Z,13.50
2019-03-03T18:47:21.863Z,13.50
2019-03-03T18:49:50.114Z,13.60
2019-03-03T18:52:18.409Z,13.50
2019-03-03T18:54:46.734Z,13.50
2019-03-03T18:57:15.006Z,13.50
2019-03-03T18:59:43.310Z,13.50
2019-03-03T19:02:12.035Z,13.50
2019-03-03T19:04:40.285Z,13.50
2019-03-03T19:07:08.576Z,13.50
2019-03-03T19:09:36.991Z,13.50
2019-03-03T19:12:05.251Z,13.50
2019-03-03T19:14:33.521Z,13.50
2019-03-03T19:17:01.780Z,13.40
2019-03-03T19:19:30.068Z,13.40
2019-03-03T19:21:58.321Z,13.40
2019-03-03T19:24:26.645Z,13.40
2019-03-03T19:26:54.902Z,13.40
2019-03-03T19:29:23.178Z,13.40
2019-03-03T19:31:51.482Z,13.40
2019-03-03T19:34:19.773Z,13.40
2019-03-03T19:36:48.069Z,13.40
2019-03-03T19:39:16.434Z,13.40
2019-03-03T19:41:44.704Z,13.30
2019-03-03T19:44:12.970Z,13.30
2019-03-03T19:46:41.244Z,13.20
2019-03-03T19:49:09.510Z,13.20
2019-03-03T19:51:40.599Z,13.20
2019-03-03T19:54:08.885Z,13.20
2019-03-03T19:56:37.227Z,13.10
2019-03-03T19:59:05.495Z,13.10
2019-03-03T20:01:33.759Z,13.10
2019-03-03T20:04:02.021Z,13.10
2019-03-03T20:06:30.271Z,13.00
2019-03-03T20:08:58.544Z,13.00
2019-03-03T20:11:26.804Z,13.00
2019-03-03T20:13:55.109Z,13.00
2019-03-03T20:16:23.367Z,13.00
2019-03-03T20:18:51.643Z,13.00
2019-03-03T20:21:19.931Z,13.00
2019-03-03T20:23:48.163Z,13.00
2019-03-03T20:26:16.520Z,12.90
2019-03-03T20:28:44.842Z,12.90
2019-03-03T20:31:13.119Z,12.90
2019-03-03T20:33:41.371Z,12.80
2019-03-03T20:36:09.656Z,12.70
2019-03-03T20:38:39.193Z,12.70
2019-03-03T20:41:07.496Z,12.60
2019-03-03T20:43:35.830Z,12.70
2019-03-03T20:46:05.005Z,12.60
2019-03-03T20:48:33.256Z,12.60
2019-03-03T20:51:01.527Z,12.60
2019-03-03T20:53:29.798Z,12.50
2019-03-03T20:55:58.077Z,12.50
2019-03-03T20:58:26.347Z,12.50
2019-03-03T21:00:54.638Z,12.50
2019-03-03T21:03:22.932Z,12.50
2019-03-03T21:05:51.188Z,12.50
2019-03-03T21:08:19.441Z,12.50
2019-03-03T21:10:47.712Z,12.50
2019-03-03T21:13:15.967Z,12.50
2019-03-03T21:15:44.252Z,12.50
2019-03-03T21:18:12.498Z,12.50
2019-03-03T21:20:40.776Z,12.50
2019-03-03T21:23:09.043Z,12.50
2019-03-03T21:25:37.892Z,12.50
2019-03-03T21:28:06.135Z,12.50
2019-03-03T21:30:34.438Z,12.40
2019-03-03T21:33:02.715Z,12.50
2019-03-03T21:35:31.064Z,12.50
2019-03-03T21:37:59.363Z,12.50
2019-03-03T21:40:28.088Z,12.50
2019-03-03T21:42:56.512Z,12.60
2019-03-03T21:45:31.646Z,12.60
2019-03-03T21:47:59.946Z,12.60
2019-03-03T21:50:29.306Z,12.50
2019-03-03T21:52:57.711Z,12.50
2019-03-03T21:55:26.029Z,12.50
2019-03-03T21:57:54.286Z,12.50
2019-03-03T22:00:27.072Z,12.50
2019-03-03T22:02:55.355Z,12.50
2019-03-03T22:05:23.630Z,12.50
2019-03-03T22:07:51.907Z,12.50
2019-03-03T22:10:22.085Z,12.50
2019-03-03T22:12:50.679Z,12.50
2019-03-03T22:15:19.128Z,12.50
2019-03-03T22:17:47.388Z,12.40
2019-03-03T22:20:15.670Z,12.40
2019-03-03T22:22:46.738Z,12.30
2019-03-03T22:25:15.066Z,12.40
2019-03-03T22:27:43.383Z,12.30
2019-03-03T22:30:13.842Z,12.30
2019-03-03T22:32:42.105Z,12.30
2019-03-03T22:35:10.404Z,12.30
2019-03-03T22:37:38.650Z,12.20
2019-03-03T22:40:10.164Z,12.20
2019-03-03T22:42:38.617Z,12.20
2019-03-03T22:45:12.805Z,12.10
2019-03-03T22:47:41.030Z,12.10
2019-03-03T22:50:11.709Z,12.10
2019-03-03T22:52:39.948Z,12.00
2019-03-03T22:55:10.574Z,12.00
2019-03-03T22:57:39.055Z,12.10
2019-03-03T23:00:16.844Z,12.10
2019-03-03T23:02:45.144Z,12.10
2019-03-03T23:05:25.594Z,12.10
2019-03-03T23:07:57.106Z,12.10
2019-03-03T23:10:37.065Z,12.00
2019-03-03T23:13:23.778Z,12.00
2019-03-03T23:16:16.416Z,12.00
2019-03-03T23:19:24.053Z,12.00
2019-03-03T23:22:10.025Z,11.90
2019-03-03T23:24:56.460Z,11.90
2019-03-03T23:27:24.729Z,11.90
2019-03-03T23:29:53.008Z,11.90
2019-03-03T23:32:21.325Z,11.90
2019-03-03T23:34:49.600Z,11.90
2019-03-03T23:37:17.910Z,11.90
2019-03-03T23:39:46.165Z,11.90
2019-03-03T23:42:14.411Z,11.90
2019-03-03T23:44:42.723Z,11.80
2019-03-03T23:47:11.073Z,11.80
2019-03-03T23:49:39.302Z,11.80
2019-03-03T23:52:07.561Z,11.80
2019-03-03T23:54:35.880Z,11.70
2019-03-03T23:57:04.135Z,11.70
2019-03-03T23:59:32.380Z,11.70
